CheckWX is a tool to help pilots better visualize weather data.  It is not intended as a substitute for an official pre-flight weather briefing.

18:23:53 UTC

SBSR METAR
Prof. Eribelto Manoel Reino State Airport
São José Do Rio Preto, Brazil
Current

24 mins ago

SBSR 201800Z 21010KT 7000 FEW030 SCT070 34/15 Q1012
Observed
Sep-20 @ 18:00 UTC
Wind
  • 210° at 10 KTS
Visibility
7,000 meters
Flight Rules
MVFR
Cloud Levels
  • Few at 3,000' AGL
  • Scattered at 7,000' AGL
Temperature
34°C / 93°F
Dewpoint
15°C / 59°F
Humidity
32%
Altimeter
29.88" Hg
Pressure
1011.92 hPa
Previous

1 hour ago

SBSR 201700Z 20012KT 7000 FEW030 32/15 Q1012
Observed
Sep-20 @ 17:00 UTC
Wind
  • 200° at 12 KTS
Visibility
7,000 meters
Flight Rules
MVFR
Cloud Levels
  • Few at 3,000' AGL
Temperature
32°C / 90°F
Dewpoint
15°C / 59°F
Humidity
36%
Altimeter
29.88" Hg
Pressure
1011.92 hPa
Previous

2 hours ago

SBSR 201600Z 21013KT 6000 SCT030 31/14 Q1013
Observed
Sep-20 @ 16:00 UTC
Wind
  • 210° at 13 KTS
Visibility
6,000 meters
Flight Rules
MVFR
Cloud Levels
  • Scattered at 3,000' AGL
Temperature
31°C / 88°F
Dewpoint
14°C / 57°F
Humidity
35%
Altimeter
29.91" Hg
Pressure
1012.92 hPa